sensor_id;sensor_type;location;lat;lon;timestamp;P1;durP1;ratioP1;P2;durP2;ratioP2
351;SDS011;164;50.784;6.496;2023-05-10T00:00:54;15.75;;;14.95;;
351;SDS011;164;50.784;6.496;2023-05-10T00:03:22;14.82;;;13.77;;
351;SDS011;164;50.784;6.496;2023-05-10T00:05:49;14.15;;;13.32;;
351;SDS011;164;50.784;6.496;2023-05-10T00:08:16;13.93;;;13.10;;
351;SDS011;164;50.784;6.496;2023-05-10T00:10:44;15.00;;;14.20;;
351;SDS011;164;50.784;6.496;2023-05-10T00:13:11;14.85;;;14.05;;
351;SDS011;164;50.784;6.496;2023-05-10T00:15:39;15.00;;;13.73;;
351;SDS011;164;50.784;6.496;2023-05-10T00:18:07;15.18;;;14.38;;
351;SDS011;164;50.784;6.496;2023-05-10T00:20:35;13.70;;;13.07;;
351;SDS011;164;50.784;6.496;2023-05-10T00:23:02;13.30;;;12.60;;
351;SDS011;164;50.784;6.496;2023-05-10T00:25:29;11.88;;;11.25;;
351;SDS011;164;50.784;6.496;2023-05-10T00:27:57;12.27;;;11.30;;
351;SDS011;164;50.784;6.496;2023-05-10T00:30:26;11.18;;;9.90;;
351;SDS011;164;50.784;6.496;2023-05-10T00:32:53;11.38;;;10.77;;
351;SDS011;164;50.784;6.496;2023-05-10T00:35:22;12.68;;;11.07;;
351;SDS011;164;50.784;6.496;2023-05-10T00:37:49;10.95;;;10.35;;
351;SDS011;164;50.784;6.496;2023-05-10T00:40:17;9.20;;;8.63;;
351;SDS011;164;50.784;6.496;2023-05-10T00:42:44;10.77;;;9.48;;
351;SDS011;164;50.784;6.496;2023-05-10T00:45:11;10.80;;;9.75;;
351;SDS011;164;50.784;6.496;2023-05-10T00:47:39;10.68;;;10.07;;
351;SDS011;164;50.784;6.496;2023-05-10T00:50:06;11.05;;;10.38;;
351;SDS011;164;50.784;6.496;2023-05-10T00:52:35;10.90;;;10.27;;
351;SDS011;164;50.784;6.496;2023-05-10T00:55:03;10.27;;;9.75;;
351;SDS011;164;50.784;6.496;2023-05-10T00:57:31;13.02;;;11.63;;
351;SDS011;164;50.784;6.496;2023-05-10T00:59:58;11.98;;;11.43;;
351;SDS011;164;50.784;6.496;2023-05-10T01:02:26;13.23;;;12.07;;
351;SDS011;164;50.784;6.496;2023-05-10T01:04:53;11.70;;;10.90;;
351;SDS011;164;50.784;6.496;2023-05-10T01:07:21;12.65;;;11.35;;
351;SDS011;164;50.784;6.496;2023-05-10T01:09:49;13.65;;;12.55;;
351;SDS011;164;50.784;6.496;2023-05-10T01:12:17;19.35;;;12.98;;
351;SDS011;164;50.784;6.496;2023-05-10T01:14:44;18.25;;;13.57;;
351;SDS011;164;50.784;6.496;2023-05-10T01:17:12;14.27;;;13.05;;
351;SDS011;164;50.784;6.496;2023-05-10T01:19:39;16.95;;;13.85;;
351;SDS011;164;50.784;6.496;2023-05-10T01:22:11;16.35;;;14.82;;
351;SDS011;164;50.784;6.496;2023-05-10T01:27:36;21.15;;;17.55;;
351;SDS011;164;50.784;6.496;2023-05-10T01:30:24;21.10;;;16.90;;
351;SDS011;164;50.784;6.496;2023-05-10T01:32:59;19.85;;;16.90;;
351;SDS011;164;50.784;6.496;2023-05-10T01:35:30;23.15;;;17.13;;
351;SDS011;164;50.784;6.496;2023-05-10T01:37:59;25.10;;;20.65;;
351;SDS011;164;50.784;6.496;2023-05-10T01:40:32;25.85;;;19.73;;
351;SDS011;164;50.784;6.496;2023-05-10T01:43:02;27.25;;;21.30;;
351;SDS011;164;50.784;6.496;2023-05-10T01:45:31;27.42;;;20.48;;
351;SDS011;164;50.784;6.496;2023-05-10T01:48:03;29.25;;;22.35;;
351;SDS011;164;50.784;6.496;2023-05-10T01:50:32;29.33;;;22.70;;
351;SDS011;164;50.784;6.496;2023-05-10T01:53:00;28.52;;;23.85;;
351;SDS011;164;50.784;6.496;2023-05-10T01:55:29;27.70;;;23.40;;
351;SDS011;164;50.784;6.496;2023-05-10T01:57:58;27.27;;;22.00;;
351;SDS011;164;50.784;6.496;2023-05-10T02:00:27;24.45;;;21.63;;
351;SDS011;164;50.784;6.496;2023-05-10T02:02:55;28.15;;;21.70;;
351;SDS011;164;50.784;6.496;2023-05-10T02:05:23;30.08;;;22.75;;
351;SDS011;164;50.784;6.496;2023-05-10T02:07:51;28.63;;;23.45;;
351;SDS011;164;50.784;6.496;2023-05-10T02:10:19;34.95;;;25.17;;
351;SDS011;164;50.784;6.496;2023-05-10T02:12:47;26.40;;;23.00;;
351;SDS011;164;50.784;6.496;2023-05-10T02:15:15;25.25;;;23.25;;
351;SDS011;164;50.784;6.496;2023-05-10T02:17:44;25.63;;;23.15;;
351;SDS011;164;50.784;6.496;2023-05-10T02:20:13;26.63;;;21.45;;
351;SDS011;164;50.784;6.496;2023-05-10T02:22:42;26.48;;;22.85;;
351;SDS011;164;50.784;6.496;2023-05-10T02:25:11;25.10;;;22.48;;
351;SDS011;164;50.784;6.496;2023-05-10T02:27:39;27.52;;;22.60;;
351;SDS011;164;50.784;6.496;2023-05-10T02:30:08;26.25;;;23.60;;
351;SDS011;164;50.784;6.496;2023-05-10T02:32:36;28.55;;;22.83;;
351;SDS011;164;50.784;6.496;2023-05-10T02:35:05;27.35;;;24.92;;
351;SDS011;164;50.784;6.496;2023-05-10T02:37:33;26.95;;;25.60;;
351;SDS011;164;50.784;6.496;2023-05-10T02:40:02;32.00;;;27.80;;
351;SDS011;164;50.784;6.496;2023-05-10T02:42:31;32.05;;;26.65;;
351;SDS011;164;50.784;6.496;2023-05-10T02:45:00;32.97;;;26.50;;
351;SDS011;164;50.784;6.496;2023-05-10T02:47:28;28.65;;;25.40;;
351;SDS011;164;50.784;6.496;2023-05-10T02:49:56;26.35;;;24.40;;
351;SDS011;164;50.784;6.496;2023-05-10T02:52:25;31.70;;;26.92;;
351;SDS011;164;50.784;6.496;2023-05-10T02:54:54;30.40;;;26.52;;
351;SDS011;164;50.784;6.496;2023-05-10T02:57:25;29.63;;;25.80;;
351;SDS011;164;50.784;6.496;2023-05-10T02:59:53;29.40;;;24.50;;
351;SDS011;164;50.784;6.496;2023-05-10T03:02:21;25.42;;;21.50;;
351;SDS011;164;50.784;6.496;2023-05-10T03:04:48;25.65;;;22.40;;
351;SDS011;164;50.784;6.496;2023-05-10T03:07:16;21.83;;;20.73;;
351;SDS011;164;50.784;6.496;2023-05-10T03:09:55;15.60;;;14.52;;
351;SDS011;164;50.784;6.496;2023-05-10T03:12:26;18.58;;;17.67;;
351;SDS011;164;50.784;6.496;2023-05-10T03:15:00;19.15;;;18.17;;
351;SDS011;164;50.784;6.496;2023-05-10T03:17:30;20.33;;;18.45;;
351;SDS011;164;50.784;6.496;2023-05-10T03:20:03;17.90;;;16.63;;
351;SDS011;164;50.784;6.496;2023-05-10T03:22:34;18.73;;;17.80;;
351;SDS011;164;50.784;6.496;2023-05-10T03:25:04;19.50;;;17.33;;
351;SDS011;164;50.784;6.496;2023-05-10T03:27:35;17.83;;;16.90;;
351;SDS011;164;50.784;6.496;2023-05-10T03:30:03;18.02;;;16.73;;
351;SDS011;164;50.784;6.496;2023-05-10T03:32:31;17.23;;;16.35;;
351;SDS011;164;50.784;6.496;2023-05-10T03:35:00;18.20;;;16.85;;
351;SDS011;164;50.784;6.496;2023-05-10T03:37:27;17.35;;;16.45;;
351;SDS011;164;50.784;6.496;2023-05-10T03:39:54;18.33;;;17.02;;
351;SDS011;164;50.784;6.496;2023-05-10T03:42:21;18.85;;;17.70;;
351;SDS011;164;50.784;6.496;2023-05-10T03:44:51;18.35;;;17.45;;
351;SDS011;164;50.784;6.496;2023-05-10T03:47:19;18.20;;;16.73;;
351;SDS011;164;50.784;6.496;2023-05-10T03:49:46;19.63;;;18.35;;
351;SDS011;164;50.784;6.496;2023-05-10T03:52:13;20.98;;;19.70;;
351;SDS011;164;50.784;6.496;2023-05-10T03:54:40;21.77;;;18.88;;
351;SDS011;164;50.784;6.496;2023-05-10T03:57:08;19.63;;;18.38;;
351;SDS011;164;50.784;6.496;2023-05-10T03:59:35;20.73;;;19.70;;
351;SDS011;164;50.784;6.496;2023-05-10T04:02:04;24.13;;;21.67;;
351;SDS011;164;50.784;6.496;2023-05-10T04:04:31;24.23;;;22.13;;
351;SDS011;164;50.784;6.496;2023-05-10T04:06:58;23.80;;;22.60;;
351;SDS011;164;50.784;6.496;2023-05-10T04:09:26;28.77;;;24.40;;
351;SDS011;164;50.784;6.496;2023-05-10T04:11:53;25.15;;;23.48;;
351;SDS011;164;50.784;6.496;2023-05-10T04:14:21;26.90;;;23.20;;
351;SDS011;164;50.784;6.496;2023-05-10T04:16:48;26.92;;;23.88;;
351;SDS011;164;50.784;6.496;2023-05-10T04:19:17;23.80;;;22.60;;
351;SDS011;164;50.784;6.496;2023-05-10T04:21:44;27.17;;;21.50;;
351;SDS011;164;50.784;6.496;2023-05-10T04:24:11;22.60;;;20.80;;
351;SDS011;164;50.784;6.496;2023-05-10T04:26:39;28.20;;;23.00;;
351;SDS011;164;50.784;6.496;2023-05-10T04:29:06;24.83;;;21.90;;
351;SDS011;164;50.784;6.496;2023-05-10T04:31:34;26.67;;;20.75;;
351;SDS011;164;50.784;6.496;2023-05-10T04:34:01;23.23;;;21.23;;
351;SDS011;164;50.784;6.496;2023-05-10T04:36:30;21.75;;;20.38;;
351;SDS011;164;50.784;6.496;2023-05-10T04:38:57;21.67;;;19.80;;
351;SDS011;164;50.784;6.496;2023-05-10T04:41:28;21.80;;;18.52;;
351;SDS011;164;50.784;6.496;2023-05-10T04:43:56;18.05;;;17.17;;
351;SDS011;164;50.784;6.496;2023-05-10T04:46:23;23.90;;;17.52;;
351;SDS011;164;50.784;6.496;2023-05-10T04:48:50;20.10;;;17.80;;
351;SDS011;164;50.784;6.496;2023-05-10T04:51:17;17.83;;;15.95;;
351;SDS011;164;50.784;6.496;2023-05-10T04:53:47;18.52;;;15.48;;
351;SDS011;164;50.784;6.496;2023-05-10T04:56:14;14.63;;;13.88;;
351;SDS011;164;50.784;6.496;2023-05-10T04:58:41;21.63;;;14.90;;
351;SDS011;164;50.784;6.496;2023-05-10T05:01:09;16.05;;;13.80;;
351;SDS011;164;50.784;6.496;2023-05-10T05:03:36;15.60;;;12.25;;
351;SDS011;164;50.784;6.496;2023-05-10T05:06:03;15.35;;;13.40;;
351;SDS011;164;50.784;6.496;2023-05-10T05:08:31;16.08;;;11.85;;
351;SDS011;164;50.784;6.496;2023-05-10T05:10:59;12.27;;;11.70;;
351;SDS011;164;50.784;6.496;2023-05-10T05:13:26;16.25;;;14.25;;
351;SDS011;164;50.784;6.496;2023-05-10T05:15:56;12.57;;;11.38;;
351;SDS011;164;50.784;6.496;2023-05-10T05:18:24;11.60;;;11.00;;
351;SDS011;164;50.784;6.496;2023-05-10T05:20:51;13.35;;;9.35;;
351;SDS011;164;50.784;6.496;2023-05-10T05:23:21;12.77;;;10.45;;
351;SDS011;164;50.784;6.496;2023-05-10T05:25:51;8.88;;;8.38;;
351;SDS011;164;50.784;6.496;2023-05-10T05:28:20;9.73;;;8.43;;
351;SDS011;164;50.784;6.496;2023-05-10T05:30:47;9.75;;;8.45;;
351;SDS011;164;50.784;6.496;2023-05-10T05:33:14;10.65;;;8.88;;
351;SDS011;164;50.784;6.496;2023-05-10T05:35:42;8.32;;;7.72;;
351;SDS011;164;50.784;6.496;2023-05-10T05:38:12;10.00;;;9.18;;
351;SDS011;164;50.784;6.496;2023-05-10T05:40:39;9.88;;;7.57;;
351;SDS011;164;50.784;6.496;2023-05-10T05:43:07;11.63;;;7.88;;
351;SDS011;164;50.784;6.496;2023-05-10T05:45:36;9.85;;;8.27;;
351;SDS011;164;50.784;6.496;2023-05-10T05:48:03;10.73;;;7.70;;
351;SDS011;164;50.784;6.496;2023-05-10T05:50:31;9.07;;;7.22;;
351;SDS011;164;50.784;6.496;2023-05-10T05:52:58;11.48;;;8.68;;
351;SDS011;164;50.784;6.496;2023-05-10T05:55:26;10.40;;;8.15;;
351;SDS011;164;50.784;6.496;2023-05-10T05:57:54;8.50;;;7.63;;
351;SDS011;164;50.784;6.496;2023-05-10T06:00:22;11.90;;;7.72;;
351;SDS011;164;50.784;6.496;2023-05-10T06:02:50;13.38;;;8.27;;
351;SDS011;164;50.784;6.496;2023-05-10T06:05:18;11.90;;;8.68;;
351;SDS011;164;50.784;6.496;2023-05-10T06:07:45;10.35;;;7.88;;
351;SDS011;164;50.784;6.496;2023-05-10T06:10:12;12.27;;;7.88;;
351;SDS011;164;50.784;6.496;2023-05-10T06:12:40;10.85;;;7.82;;
351;SDS011;164;50.784;6.496;2023-05-10T06:15:08;13.40;;;8.57;;
351;SDS011;164;50.784;6.496;2023-05-10T06:17:35;9.18;;;7.43;;
351;SDS011;164;50.784;6.496;2023-05-10T06:20:05;8.68;;;6.50;;
351;SDS011;164;50.784;6.496;2023-05-10T06:22:33;8.15;;;7.18;;
351;SDS011;164;50.784;6.496;2023-05-10T06:25:00;8.25;;;7.10;;
351;SDS011;164;50.784;6.496;2023-05-10T06:27:28;8.90;;;7.75;;
351;SDS011;164;50.784;6.496;2023-05-10T06:29:55;8.88;;;7.57;;
351;SDS011;164;50.784;6.496;2023-05-10T06:32:22;8.35;;;6.85;;
351;SDS011;164;50.784;6.496;2023-05-10T06:34:49;10.07;;;7.00;;
351;SDS011;164;50.784;6.496;2023-05-10T06:37:18;7.55;;;6.38;;
351;SDS011;164;50.784;6.496;2023-05-10T06:39:46;6.65;;;5.75;;
351;SDS011;164;50.784;6.496;2023-05-10T06:42:13;9.25;;;6.10;;
351;SDS011;164;50.784;6.496;2023-05-10T06:44:41;6.75;;;5.47;;
351;SDS011;164;50.784;6.496;2023-05-10T06:47:08;3.67;;;3.47;;
351;SDS011;164;50.784;6.496;2023-05-10T06:49:35;7.47;;;4.97;;
351;SDS011;164;50.784;6.496;2023-05-10T06:52:03;4.72;;;4.43;;
351;SDS011;164;50.784;6.496;2023-05-10T06:54:32;4.53;;;3.55;;
351;SDS011;164;50.784;6.496;2023-05-10T06:56:59;4.22;;;3.72;;
351;SDS011;164;50.784;6.496;2023-05-10T06:59:28;6.30;;;2.28;;
351;SDS011;164;50.784;6.496;2023-05-10T07:01:55;2.42;;;2.22;;
351;SDS011;164;50.784;6.496;2023-05-10T07:04:22;2.45;;;2.25;;
351;SDS011;164;50.784;6.496;2023-05-10T07:06:50;2.28;;;1.90;;
351;SDS011;164;50.784;6.496;2023-05-10T07:09:17;1.90;;;1.80;;
351;SDS011;164;50.784;6.496;2023-05-10T07:11:45;1.85;;;1.80;;
351;SDS011;164;50.784;6.496;2023-05-10T07:14:13;1.60;;;1.60;;
351;SDS011;164;50.784;6.496;2023-05-10T07:16:40;2.55;;;2.35;;
351;SDS011;164;50.784;6.496;2023-05-10T07:19:07;3.38;;;1.73;;
351;SDS011;164;50.784;6.496;2023-05-10T07:21:35;2.65;;;1.70;;
351;SDS011;164;50.784;6.496;2023-05-10T07:24:02;1.00;;;0.90;;
351;SDS011;164;50.784;6.496;2023-05-10T07:26:30;1.35;;;1.25;;
351;SDS011;164;50.784;6.496;2023-05-10T07:28:58;1.90;;;1.23;;
351;SDS011;164;50.784;6.496;2023-05-10T07:31:26;1.25;;;0.98;;
351;SDS011;164;50.784;6.496;2023-05-10T07:33:53;1.58;;;1.25;;
351;SDS011;164;50.784;6.496;2023-05-10T07:36:24;0.90;;;0.80;;
351;SDS011;164;50.784;6.496;2023-05-10T07:38:51;1.25;;;1.15;;
351;SDS011;164;50.784;6.496;2023-05-10T07:41:18;3.00;;;1.10;;
351;SDS011;164;50.784;6.496;2023-05-10T07:43:46;1.85;;;1.00;;
351;SDS011;164;50.784;6.496;2023-05-10T07:46:15;2.90;;;1.05;;
351;SDS011;164;50.784;6.496;2023-05-10T07:48:42;0.70;;;0.70;;
351;SDS011;164;50.784;6.496;2023-05-10T07:51:09;1.05;;;0.73;;
351;SDS011;164;50.784;6.496;2023-05-10T07:53:37;1.10;;;0.80;;
351;SDS011;164;50.784;6.496;2023-05-10T07:56:19;0.80;;;0.70;;
351;SDS011;164;50.784;6.496;2023-05-10T07:58:47;0.70;;;0.60;;
351;SDS011;164;50.784;6.496;2023-05-10T08:01:16;0.77;;;0.68;;
351;SDS011;164;50.784;6.496;2023-05-10T08:03:43;1.23;;;0.85;;
351;SDS011;164;50.784;6.496;2023-05-10T08:06:11;0.70;;;0.50;;
351;SDS011;164;50.784;6.496;2023-05-10T08:08:38;0.60;;;0.50;;
351;SDS011;164;50.784;6.496;2023-05-10T08:11:05;0.70;;;0.50;;
351;SDS011;164;50.784;6.496;2023-05-10T08:13:32;1.55;;;0.40;;
351;SDS011;164;50.784;6.496;2023-05-10T08:16:00;1.05;;;0.73;;
351;SDS011;164;50.784;6.496;2023-05-10T08:18:30;0.90;;;0.70;;
351;SDS011;164;50.784;6.496;2023-05-10T08:20:57;0.90;;;0.70;;
351;SDS011;164;50.784;6.496;2023-05-10T08:23:24;0.95;;;0.93;;
351;SDS011;164;50.784;6.496;2023-05-10T08:25:51;0.60;;;0.50;;
351;SDS011;164;50.784;6.496;2023-05-10T08:28:19;1.00;;;0.90;;
351;SDS011;164;50.784;6.496;2023-05-10T08:30:46;1.10;;;1.00;;
351;SDS011;164;50.784;6.496;2023-05-10T08:33:13;1.50;;;1.30;;
351;SDS011;164;50.784;6.496;2023-05-10T08:35:42;3.45;;;2.90;;
351;SDS011;164;50.784;6.496;2023-05-10T08:38:09;3.70;;;3.53;;
351;SDS011;164;50.784;6.496;2023-05-10T08:40:38;7.57;;;6.00;;
351;SDS011;164;50.784;6.496;2023-05-10T08:43:09;11.05;;;6.85;;
351;SDS011;164;50.784;6.496;2023-05-10T08:45:38;10.10;;;7.82;;
351;SDS011;164;50.784;6.496;2023-05-10T08:48:07;8.52;;;6.85;;
351;SDS011;164;50.784;6.496;2023-05-10T08:50:37;10.13;;;8.10;;
351;SDS011;164;50.784;6.496;2023-05-10T08:53:06;10.40;;;8.55;;
351;SDS011;164;50.784;6.496;2023-05-10T08:55:36;8.70;;;7.50;;
351;SDS011;164;50.784;6.496;2023-05-10T08:58:05;11.35;;;7.88;;
351;SDS011;164;50.784;6.496;2023-05-10T09:00:32;11.38;;;7.90;;
351;SDS011;164;50.784;6.496;2023-05-10T09:03:00;8.10;;;7.65;;
351;SDS011;164;50.784;6.496;2023-05-10T09:05:28;8.18;;;7.05;;
351;SDS011;164;50.784;6.496;2023-05-10T09:07:55;6.60;;;6.20;;
351;SDS011;164;50.784;6.496;2023-05-10T09:10:25;6.40;;;5.97;;
351;SDS011;164;50.784;6.496;2023-05-10T09:12:53;4.70;;;4.45;;
351;SDS011;164;50.784;6.496;2023-05-10T09:15:23;3.67;;;3.50;;
351;SDS011;164;50.784;6.496;2023-05-10T09:17:51;2.22;;;2.10;;
351;SDS011;164;50.784;6.496;2023-05-10T09:20:18;1.90;;;1.80;;
351;SDS011;164;50.784;6.496;2023-05-10T09:22:46;1.67;;;1.50;;
351;SDS011;164;50.784;6.496;2023-05-10T09:25:14;1.20;;;1.10;;
351;SDS011;164;50.784;6.496;2023-05-10T09:27:44;1.00;;;0.90;;
351;SDS011;164;50.784;6.496;2023-05-10T09:30:15;0.80;;;0.77;;
351;SDS011;164;50.784;6.496;2023-05-10T09:32:47;1.00;;;0.90;;
351;SDS011;164;50.784;6.496;2023-05-10T09:35:15;1.00;;;0.93;;
351;SDS011;164;50.784;6.496;2023-05-10T09:37:43;0.80;;;0.80;;
351;SDS011;164;50.784;6.496;2023-05-10T09:40:11;0.77;;;0.75;;
351;SDS011;164;50.784;6.496;2023-05-10T09:42:40;0.82;;;0.80;;
351;SDS011;164;50.784;6.496;2023-05-10T09:45:09;1.15;;;1.05;;
351;SDS011;164;50.784;6.496;2023-05-10T09:47:37;1.73;;;0.70;;
351;SDS011;164;50.784;6.496;2023-05-10T09:50:04;0.70;;;0.70;;
351;SDS011;164;50.784;6.496;2023-05-10T09:52:45;2.10;;;1.95;;
351;SDS011;164;50.784;6.496;2023-05-10T09:55:13;2.85;;;2.65;;
351;SDS011;164;50.784;6.496;2023-05-10T09:57:40;2.28;;;2.08;;
351;SDS011;164;50.784;6.496;2023-05-10T10:00:09;1.80;;;1.70;;
351;SDS011;164;50.784;6.496;2023-05-10T10:02:38;2.38;;;2.17;;
351;SDS011;164;50.784;6.496;2023-05-10T10:05:06;2.28;;;2.08;;
351;SDS011;164;50.784;6.496;2023-05-10T10:07:33;2.40;;;2.20;;
351;SDS011;164;50.784;6.496;2023-05-10T10:10:01;2.25;;;2.05;;
351;SDS011;164;50.784;6.496;2023-05-10T10:12:29;2.40;;;2.20;;
351;SDS011;164;50.784;6.496;2023-05-10T10:14:57;2.10;;;1.95;;
351;SDS011;164;50.784;6.496;2023-05-10T10:17:28;2.67;;;2.47;;
351;SDS011;164;50.784;6.496;2023-05-10T10:19:57;2.67;;;2.47;;
351;SDS011;164;50.784;6.496;2023-05-10T10:22:24;3.00;;;2.75;;
351;SDS011;164;50.784;6.496;2023-05-10T10:24:51;2.55;;;2.35;;
351;SDS011;164;50.784;6.496;2023-05-10T10:27:20;2.72;;;1.65;;
351;SDS011;164;50.784;6.496;2023-05-10T10:29:55;2.70;;;2.50;;
351;SDS011;164;50.784;6.496;2023-05-10T10:32:27;2.90;;;2.70;;
351;SDS011;164;50.784;6.496;2023-05-10T10:34:58;3.55;;;3.35;;
351;SDS011;164;50.784;6.496;2023-05-10T10:40:22;3.50;;;3.30;;
351;SDS011;164;50.784;6.496;2023-05-10T10:42:49;4.40;;;4.10;;
351;SDS011;164;50.784;6.496;2023-05-10T10:45:17;3.00;;;2.80;;
351;SDS011;164;50.784;6.496;2023-05-10T10:47:45;2.70;;;2.50;;
351;SDS011;164;50.784;6.496;2023-05-10T10:50:16;2.63;;;2.42;;
351;SDS011;164;50.784;6.496;2023-05-10T10:52:43;2.97;;;2.78;;
351;SDS011;164;50.784;6.496;2023-05-10T10:55:11;2.58;;;2.38;;
351;SDS011;164;50.784;6.496;2023-05-10T10:57:43;2.55;;;2.35;;
351;SDS011;164;50.784;6.496;2023-05-10T11:00:21;2.72;;;2.53;;
351;SDS011;164;50.784;6.496;2023-05-10T11:02:49;2.08;;;1.98;;
351;SDS011;164;50.784;6.496;2023-05-10T11:05:35;1.80;;;1.70;;
351;SDS011;164;50.784;6.496;2023-05-10T11:08:09;1.63;;;1.58;;
351;SDS011;164;50.784;6.496;2023-05-10T11:10:37;1.40;;;1.30;;
351;SDS011;164;50.784;6.496;2023-05-10T11:13:05;2.17;;;1.20;;
351;SDS011;164;50.784;6.496;2023-05-10T11:15:33;1.55;;;1.35;;
351;SDS011;164;50.784;6.496;2023-05-10T11:18:16;1.35;;;1.30;;
351;SDS011;164;50.784;6.496;2023-05-10T11:20:46;1.63;;;1.52;;
351;SDS011;164;50.784;6.496;2023-05-10T11:23:17;2.08;;;1.80;;
351;SDS011;164;50.784;6.496;2023-05-10T11:25:46;1.70;;;1.60;;
351;SDS011;164;50.784;6.496;2023-05-10T11:28:13;2.75;;;1.95;;
351;SDS011;164;50.784;6.496;2023-05-10T11:30:40;2.35;;;1.50;;
351;SDS011;164;50.784;6.496;2023-05-10T11:33:08;1.73;;;1.63;;
351;SDS011;164;50.784;6.496;2023-05-10T11:35:39;2.00;;;1.90;;
351;SDS011;164;50.784;6.496;2023-05-10T11:38:08;1.80;;;1.70;;
351;SDS011;164;50.784;6.496;2023-05-10T11:40:35;2.22;;;1.15;;
351;SDS011;164;50.784;6.496;2023-05-10T11:43:03;1.70;;;1.60;;
351;SDS011;164;50.784;6.496;2023-05-10T11:45:31;1.15;;;1.05;;
351;SDS011;164;50.784;6.496;2023-05-10T11:47:59;1.38;;;1.27;;
351;SDS011;164;50.784;6.496;2023-05-10T11:50:27;1.77;;;1.25;;
351;SDS011;164;50.784;6.496;2023-05-10T11:52:57;1.20;;;1.10;;
351;SDS011;164;50.784;6.496;2023-05-10T11:55:26;2.22;;;1.30;;
351;SDS011;164;50.784;6.496;2023-05-10T11:57:55;1.38;;;1.15;;
351;SDS011;164;50.784;6.496;2023-05-10T12:00:26;1.23;;;1.20;;
351;SDS011;164;50.784;6.496;2023-05-10T12:02:54;1.83;;;1.73;;
351;SDS011;164;50.784;6.496;2023-05-10T12:05:22;0.90;;;0.80;;
351;SDS011;164;50.784;6.496;2023-05-10T12:07:49;1.58;;;1.48;;
351;SDS011;164;50.784;6.496;2023-05-10T12:10:17;1.55;;;1.45;;
351;SDS011;164;50.784;6.496;2023-05-10T12:12:53;1.88;;;1.77;;
351;SDS011;164;50.784;6.496;2023-05-10T12:15:21;2.08;;;1.55;;
351;SDS011;164;50.784;6.496;2023-05-10T12:17:48;1.80;;;1.75;;
351;SDS011;164;50.784;6.496;2023-05-10T12:20:16;1.42;;;1.33;;
351;SDS011;164;50.784;6.496;2023-05-10T12:22:45;1.30;;;1.20;;
351;SDS011;164;50.784;6.496;2023-05-10T12:25:13;2.45;;;1.20;;
351;SDS011;164;50.784;6.496;2023-05-10T12:27:41;1.40;;;1.30;;
351;SDS011;164;50.784;6.496;2023-05-10T12:30:10;1.35;;;1.25;;
351;SDS011;164;50.784;6.496;2023-05-10T12:32:37;1.45;;;1.38;;
351;SDS011;164;50.784;6.496;2023-05-10T12:35:06;1.88;;;1.58;;
351;SDS011;164;50.784;6.496;2023-05-10T12:37:33;1.80;;;1.27;;
351;SDS011;164;50.784;6.496;2023-05-10T12:40:05;1.50;;;1.40;;
351;SDS011;164;50.784;6.496;2023-05-10T12:42:33;2.08;;;1.38;;
351;SDS011;164;50.784;6.496;2023-05-10T12:45:01;2.10;;;1.75;;
351;SDS011;164;50.784;6.496;2023-05-10T12:47:30;1.35;;;1.25;;
351;SDS011;164;50.784;6.496;2023-05-10T12:49:57;2.15;;;1.20;;
351;SDS011;164;50.784;6.496;2023-05-10T12:52:25;1.85;;;1.10;;
351;SDS011;164;50.784;6.496;2023-05-10T12:54:52;1.63;;;1.45;;
351;SDS011;164;50.784;6.496;2023-05-10T12:57:20;2.33;;;2.13;;
351;SDS011;164;50.784;6.496;2023-05-10T12:59:47;2.05;;;1.92;;
351;SDS011;164;50.784;6.496;2023-05-10T13:02:14;1.92;;;1.83;;
351;SDS011;164;50.784;6.496;2023-05-10T13:04:44;1.67;;;1.58;;
351;SDS011;164;50.784;6.496;2023-05-10T13:07:12;2.97;;;1.60;;
351;SDS011;164;50.784;6.496;2023-05-10T13:09:39;1.55;;;1.45;;
351;SDS011;164;50.784;6.496;2023-05-10T13:12:07;1.60;;;1.50;;
351;SDS011;164;50.784;6.496;2023-05-10T13:14:34;3.75;;;2.00;;
351;SDS011;164;50.784;6.496;2023-05-10T13:17:01;2.70;;;2.50;;
351;SDS011;164;50.784;6.496;2023-05-10T13:19:29;2.35;;;1.98;;
351;SDS011;164;50.784;6.496;2023-05-10T13:21:58;2.10;;;1.95;;
351;SDS011;164;50.784;6.496;2023-05-10T13:24:25;2.67;;;2.47;;
351;SDS011;164;50.784;6.496;2023-05-10T13:26:52;2.72;;;2.53;;
351;SDS011;164;50.784;6.496;2023-05-10T13:29:20;3.10;;;2.90;;
351;SDS011;164;50.784;6.496;2023-05-10T13:31:47;3.60;;;3.40;;
351;SDS011;164;50.784;6.496;2023-05-10T13:34:15;2.80;;;2.60;;
351;SDS011;164;50.784;6.496;2023-05-10T13:36:45;1.92;;;1.73;;
351;SDS011;164;50.784;6.496;2023-05-10T13:39:14;3.67;;;1.45;;
351;SDS011;164;50.784;6.496;2023-05-10T13:41:41;1.73;;;1.63;;
351;SDS011;164;50.784;6.496;2023-05-10T13:44:09;2.10;;;1.83;;
351;SDS011;164;50.784;6.496;2023-05-10T13:46:37;1.80;;;1.70;;
351;SDS011;164;50.784;6.496;2023-05-10T13:49:04;2.72;;;2.55;;
351;SDS011;164;50.784;6.496;2023-05-10T13:51:33;1.95;;;1.85;;
351;SDS011;164;50.784;6.496;2023-05-10T13:54:00;2.22;;;2.03;;
351;SDS011;164;50.784;6.496;2023-05-10T13:56:30;1.80;;;1.70;;
351;SDS011;164;50.784;6.496;2023-05-10T13:58:58;1.92;;;1.70;;
351;SDS011;164;50.784;6.496;2023-05-10T14:01:25;1.38;;;1.27;;
351;SDS011;164;50.784;6.496;2023-05-10T14:03:53;1.83;;;1.73;;
351;SDS011;164;50.784;6.496;2023-05-10T14:06:20;1.73;;;1.65;;
351;SDS011;164;50.784;6.496;2023-05-10T14:08:47;1.48;;;1.38;;
351;SDS011;164;50.784;6.496;2023-05-10T14:11:14;5.95;;;2.75;;
351;SDS011;164;50.784;6.496;2023-05-10T14:13:44;2.83;;;2.20;;
351;SDS011;164;50.784;6.496;2023-05-10T14:16:11;1.75;;;1.55;;
351;SDS011;164;50.784;6.496;2023-05-10T14:18:40;1.70;;;1.60;;
351;SDS011;164;50.784;6.496;2023-05-10T14:21:07;1.60;;;1.33;;
351;SDS011;164;50.784;6.496;2023-05-10T14:23:34;1.60;;;1.20;;
351;SDS011;164;50.784;6.496;2023-05-10T14:26:02;1.48;;;1.17;;
351;SDS011;164;50.784;6.496;2023-05-10T14:28:29;1.25;;;1.00;;
351;SDS011;164;50.784;6.496;2023-05-10T14:30:58;1.52;;;1.42;;
351;SDS011;164;50.784;6.496;2023-05-10T14:33:27;2.55;;;1.30;;
351;SDS011;164;50.784;6.496;2023-05-10T14:35:55;3.33;;;1.42;;
351;SDS011;164;50.784;6.496;2023-05-10T14:38:22;1.98;;;1.88;;
351;SDS011;164;50.784;6.496;2023-05-10T14:40:50;1.80;;;1.50;;
351;SDS011;164;50.784;6.496;2023-05-10T14:43:17;1.67;;;1.15;;
351;SDS011;164;50.784;6.496;2023-05-10T14:45:44;1.40;;;1.30;;
351;SDS011;164;50.784;6.496;2023-05-10T14:48:14;2.90;;;1.65;;
351;SDS011;164;50.784;6.496;2023-05-10T14:50:42;2.50;;;2.30;;
351;SDS011;164;50.784;6.496;2023-05-10T14:53:10;1.30;;;1.10;;
351;SDS011;164;50.784;6.496;2023-05-10T14:55:37;3.25;;;2.05;;
351;SDS011;164;50.784;6.496;2023-05-10T14:58:04;1.20;;;1.13;;
351;SDS011;164;50.784;6.496;2023-05-10T15:00:32;1.25;;;1.20;;
351;SDS011;164;50.784;6.496;2023-05-10T15:02:59;1.92;;;1.20;;
351;SDS011;164;50.784;6.496;2023-05-10T15:05:28;1.10;;;0.85;;
351;SDS011;164;50.784;6.496;2023-05-10T15:07:56;1.00;;;0.90;;
351;SDS011;164;50.784;6.496;2023-05-10T15:10:23;1.15;;;1.08;;
351;SDS011;164;50.784;6.496;2023-05-10T15:12:50;0.95;;;0.90;;
351;SDS011;164;50.784;6.496;2023-05-10T15:15:18;1.20;;;1.15;;
351;SDS011;164;50.784;6.496;2023-05-10T15:17:45;3.25;;;1.95;;
351;SDS011;164;50.784;6.496;2023-05-10T15:20:12;2.22;;;2.03;;
351;SDS011;164;50.784;6.496;2023-05-10T15:22:41;2.05;;;1.95;;
351;SDS011;164;50.784;6.496;2023-05-10T15:25:08;2.38;;;2.13;;
351;SDS011;164;50.784;6.496;2023-05-10T15:27:36;1.45;;;1.35;;
351;SDS011;164;50.784;6.496;2023-05-10T15:30:04;1.83;;;1.77;;
351;SDS011;164;50.784;6.496;2023-05-10T15:32:31;1.45;;;1.40;;
351;SDS011;164;50.784;6.496;2023-05-10T15:34:58;2.20;;;2.00;;
351;SDS011;164;50.784;6.496;2023-05-10T15:37:26;1.90;;;1.80;;
351;SDS011;164;50.784;6.496;2023-05-10T15:39:54;2.08;;;1.95;;
351;SDS011;164;50.784;6.496;2023-05-10T15:42:28;1.63;;;1.58;;
351;SDS011;164;50.784;6.496;2023-05-10T15:44:57;2.10;;;1.67;;
351;SDS011;164;50.784;6.496;2023-05-10T15:47:24;1.65;;;1.55;;